createdAt,value
2019-03-17T00:00:12.240Z,974.22
2019-03-17T00:01:12.400Z,974.22
2019-03-17T00:02:12.221Z,974.18
2019-03-17T00:03:12.238Z,974.15
2019-03-17T00:04:12.205Z,974.13
2019-03-17T00:05:12.185Z,974.18
2019-03-17T00:06:12.171Z,974.05
2019-03-17T00:07:12.163Z,974.16
2019-03-17T00:08:12.150Z,974.17
2019-03-17T00:09:12.169Z,974.14
2019-03-17T00:10:12.131Z,974.11
2019-03-17T00:11:12.133Z,974.13
2019-03-17T00:12:12.128Z,974.15
2019-03-17T00:13:12.115Z,974.13
2019-03-17T00:14:12.085Z,974.06
2019-03-17T00:15:12.075Z,974.11
2019-03-17T00:16:12.065Z,974.03
2019-03-17T00:17:12.065Z,974.02
2019-03-17T00:18:12.066Z,974.02
2019-03-17T00:19:12.049Z,973.93
2019-03-17T00:20:12.026Z,973.99
2019-03-17T00:21:12.010Z,973.92
2019-03-17T00:22:12.001Z,973.98
2019-03-17T00:23:11.993Z,973.91
2019-03-17T00:24:12.031Z,973.86
2019-03-17T00:25:11.967Z,973.94
2019-03-17T00:26:12.166Z,973.94
2019-03-17T00:27:11.949Z,973.94
2019-03-17T00:28:11.936Z,973.84
2019-03-17T00:29:11.943Z,973.79
2019-03-17T00:30:11.935Z,973.78
2019-03-17T00:31:23.286Z,973.83
2019-03-17T00:32:12.895Z,973.86
2019-03-17T00:33:11.886Z,973.84
2019-03-17T00:34:11.892Z,973.84
2019-03-17T00:35:11.862Z,973.84
2019-03-17T00:36:11.885Z,973.82
2019-03-17T00:37:11.842Z,973.80
2019-03-17T00:38:11.831Z,973.79
2019-03-17T00:39:11.836Z,973.82
2019-03-17T00:40:11.822Z,973.77
2019-03-17T00:41:11.869Z,973.73
2019-03-17T00:42:11.812Z,973.78
2019-03-17T00:43:11.776Z,973.78
2019-03-17T00:44:11.784Z,973.73
2019-03-17T00:45:12.062Z,973.76
2019-03-17T00:46:11.743Z,973.69
2019-03-17T00:47:11.790Z,973.68
2019-03-17T00:48:11.725Z,973.72
2019-03-17T00:49:11.711Z,973.74
2019-03-17T00:50:11.703Z,973.70
2019-03-17T00:51:11.711Z,973.68
2019-03-17T00:52:11.679Z,973.69
2019-03-17T00:53:11.700Z,973.60
2019-03-17T00:54:11.660Z,973.59
2019-03-17T00:55:11.668Z,973.66
2019-03-17T00:56:11.644Z,973.52
2019-03-17T00:57:11.642Z,973.57
2019-03-17T00:58:11.614Z,973.43
2019-03-17T00:59:11.628Z,973.53
2019-03-17T01:00:11.617Z,973.54
2019-03-17T01:01:11.585Z,973.38
2019-03-17T01:02:11.579Z,973.48
2019-03-17T01:03:11.579Z,973.44
2019-03-17T01:04:11.568Z,973.35
2019-03-17T01:05:11.544Z,973.34
2019-03-17T01:06:11.539Z,973.34
2019-03-17T01:07:11.521Z,973.38
2019-03-17T01:08:11.561Z,973.38
2019-03-17T01:09:11.514Z,973.29
2019-03-17T01:10:11.493Z,973.29
2019-03-17T01:11:11.477Z,973.19
2019-03-17T01:12:11.485Z,973.20
2019-03-17T01:13:11.458Z,973.18
2019-03-17T01:14:11.448Z,973.19
2019-03-17T01:15:11.450Z,973.24
2019-03-17T01:16:11.425Z,973.17
2019-03-17T01:17:11.413Z,973.20
2019-03-17T01:18:11.451Z,973.20
2019-03-17T01:19:11.407Z,973.19
2019-03-17T01:20:11.401Z,973.15
2019-03-17T01:21:11.384Z,973.13
2019-03-17T01:22:11.374Z,973.12
2019-03-17T01:23:11.352Z,973.11
2019-03-17T01:24:11.408Z,973.13
2019-03-17T01:25:11.352Z,973.12
2019-03-17T01:26:11.314Z,973.10
2019-03-17T01:27:11.336Z,973.10
2019-03-17T01:28:11.296Z,973.14
2019-03-17T01:29:11.346Z,973.03
2019-03-17T01:30:11.278Z,973.00
2019-03-17T01:31:11.293Z,972.98
2019-03-17T01:32:11.272Z,973.01
2019-03-17T01:33:11.264Z,972.93
2019-03-17T01:34:11.287Z,972.99
2019-03-17T01:35:11.245Z,972.95
2019-03-17T01:36:11.230Z,972.88
2019-03-17T01:37:11.217Z,972.87
2019-03-17T01:38:11.224Z,972.82
2019-03-17T01:39:11.278Z,972.91
2019-03-17T01:40:11.208Z,972.91
2019-03-17T01:41:11.161Z,972.93
2019-03-17T01:42:11.171Z,972.89
2019-03-17T01:43:11.134Z,972.79
2019-03-17T01:44:11.150Z,972.80
2019-03-17T01:45:11.149Z,972.83
2019-03-17T01:46:11.117Z,972.78
2019-03-17T01:47:11.103Z,972.75
2019-03-17T01:48:11.109Z,972.78
2019-03-17T01:49:11.073Z,972.79
2019-03-17T01:50:11.069Z,972.78
2019-03-17T01:51:11.112Z,972.67
2019-03-17T01:52:11.062Z,972.64
2019-03-17T01:53:11.026Z,972.56
2019-03-17T01:54:11.041Z,972.57
2019-03-17T01:55:11.008Z,972.51
2019-03-17T01:56:10.997Z,972.49
2019-03-17T01:57:11.025Z,972.51
2019-03-17T01:58:10.974Z,972.51
2019-03-17T01:59:10.967Z,972.50
2019-03-17T02:00:10.963Z,972.56
2019-03-17T02:01:12.030Z,972.52
2019-03-17T02:02:10.955Z,972.48
2019-03-17T02:03:10.941Z,972.56
2019-03-17T02:04:10.909Z,972.56
2019-03-17T02:05:21.397Z,972.57
2019-03-17T02:06:11.890Z,972.63
2019-03-17T02:07:10.878Z,972.53
2019-03-17T02:08:10.885Z,972.53
2019-03-17T02:09:10.872Z,972.50
2019-03-17T02:10:10.863Z,972.45
2019-03-17T02:11:10.835Z,972.45
2019-03-17T02:12:10.827Z,972.42
2019-03-17T02:13:10.817Z,972.45
2019-03-17T02:14:10.818Z,972.47
2019-03-17T02:15:10.816Z,972.42
2019-03-17T02:16:10.782Z,972.47
2019-03-17T02:17:10.770Z,972.46
2019-03-17T02:18:10.760Z,972.55
2019-03-17T02:19:10.751Z,972.52
2019-03-17T02:20:10.752Z,972.56
2019-03-17T02:21:10.779Z,972.47
2019-03-17T02:22:10.732Z,972.54
2019-03-17T02:23:10.708Z,972.44
2019-03-17T02:24:10.744Z,972.46
2019-03-17T02:25:10.686Z,972.48
2019-03-17T02:26:10.674Z,972.42
2019-03-17T02:27:10.702Z,972.48
2019-03-17T02:28:10.653Z,972.45
2019-03-17T02:29:10.646Z,972.36
2019-03-17T02:30:10.763Z,972.40
2019-03-17T02:31:10.628Z,972.46
2019-03-17T02:32:10.626Z,972.41
2019-03-17T02:33:10.611Z,972.37
2019-03-17T02:34:12.160Z,972.32
2019-03-17T02:35:10.604Z,972.37
2019-03-17T02:36:10.572Z,972.39
2019-03-17T02:37:10.557Z,972.44
2019-03-17T02:38:10.572Z,972.34
2019-03-17T02:39:10.535Z,972.37
2019-03-17T02:40:10.558Z,972.32
2019-03-17T02:41:10.518Z,972.33
2019-03-17T02:42:10.509Z,972.34
2019-03-17T02:43:10.500Z,972.32
2019-03-17T02:44:10.505Z,972.33
2019-03-17T02:45:10.476Z,972.28
2019-03-17T02:46:10.480Z,972.29
2019-03-17T02:47:10.453Z,972.19
2019-03-17T02:48:10.458Z,972.27
2019-03-17T02:49:10.431Z,972.19
2019-03-17T02:50:10.431Z,972.25
2019-03-17T02:51:10.419Z,972.26
2019-03-17T02:52:10.424Z,972.19
2019-03-17T02:53:10.436Z,972.17
2019-03-17T02:54:10.421Z,972.16
2019-03-17T02:55:10.441Z,972.11
2019-03-17T02:56:10.370Z,972.15
2019-03-17T02:57:10.344Z,972.10
2019-03-17T02:58:10.352Z,972.10
2019-03-17T02:59:10.321Z,972.14
2019-03-17T03:00:10.352Z,972.00
2019-03-17T03:01:10.310Z,972.03
2019-03-17T03:02:10.291Z,972.05
2019-03-17T03:03:10.301Z,971.96
2019-03-17T03:04:10.273Z,971.97
2019-03-17T03:05:10.274Z,971.90
2019-03-17T03:06:10.246Z,971.88
2019-03-17T03:07:10.242Z,971.91
2019-03-17T03:08:10.232Z,971.94
2019-03-17T03:09:10.236Z,971.93
2019-03-17T03:10:10.219Z,971.81
2019-03-17T03:11:10.217Z,971.78
2019-03-17T03:12:10.199Z,971.84
2019-03-17T03:13:10.172Z,971.75
2019-03-17T03:14:10.243Z,971.80
2019-03-17T03:15:10.206Z,971.72
2019-03-17T03:16:10.155Z,971.77
2019-03-17T03:17:10.195Z,971.71
2019-03-17T03:18:10.127Z,971.71
2019-03-17T03:19:10.110Z,971.67
2019-03-17T03:20:10.112Z,971.69
2019-03-17T03:21:10.105Z,971.67
2019-03-17T03:22:10.080Z,971.55
2019-03-17T03:23:10.080Z,971.58
2019-03-17T03:24:10.064Z,971.59
2019-03-17T03:25:10.053Z,971.53
2019-03-17T03:26:10.035Z,971.62
2019-03-17T03:27:10.053Z,971.61
2019-03-17T03:28:10.017Z,971.59
2019-03-17T03:29:10.035Z,971.56
2019-03-17T03:30:09.993Z,971.53
2019-03-17T03:31:09.980Z,971.52
2019-03-17T03:32:09.974Z,971.50
2019-03-17T03:33:09.989Z,971.49
2019-03-17T03:34:09.950Z,971.49
2019-03-17T03:35:10.087Z,971.44
2019-03-17T03:36:11.888Z,971.45
2019-03-17T03:37:09.929Z,971.44
2019-03-17T03:38:09.916Z,971.39
2019-03-17T03:39:09.916Z,971.48
2019-03-17T03:40:09.887Z,971.44
2019-03-17T03:41:09.875Z,971.42
2019-03-17T03:42:09.862Z,971.49
2019-03-17T03:43:09.859Z,971.46
2019-03-17T03:44:09.842Z,971.43
2019-03-17T03:45:09.849Z,971.44
2019-03-17T03:46:09.817Z,971.42
2019-03-17T03:47:09.808Z,971.49
2019-03-17T03:48:09.802Z,971.38
2019-03-17T03:49:09.803Z,971.39
2019-03-17T03:50:09.809Z,971.37
2019-03-17T03:51:09.783Z,971.35
2019-03-17T03:52:09.772Z,971.29
2019-03-17T03:53:09.745Z,971.26
2019-03-17T03:54:09.747Z,971.38
2019-03-17T03:55:09.733Z,971.44
2019-03-17T03:56:09.778Z,971.33
2019-03-17T03:57:09.746Z,971.40
2019-03-17T03:58:09.728Z,971.39
2019-03-17T03:59:09.679Z,971.31
2019-03-17T04:00:09.691Z,971.41
2019-03-17T04:01:09.676Z,971.28
2019-03-17T04:02:09.651Z,971.35
2019-03-17T04:03:09.670Z,971.35
2019-03-17T04:04:09.627Z,971.30
2019-03-17T04:05:09.621Z,971.35
2019-03-17T04:06:25.246Z,971.35
2019-03-17T04:07:10.612Z,971.41
2019-03-17T04:08:09.593Z,971.35
2019-03-17T04:09:09.600Z,971.39
2019-03-17T04:10:09.567Z,971.37
2019-03-17T04:11:09.552Z,971.43
2019-03-17T04:12:09.550Z,971.43
2019-03-17T04:13:09.545Z,971.48
2019-03-17T04:14:09.522Z,971.50
2019-03-17T04:15:09.539Z,971.45
2019-03-17T04:16:09.526Z,971.45
2019-03-17T04:17:09.543Z,971.42
2019-03-17T04:18:09.478Z,971.41
2019-03-17T04:19:09.480Z,971.44
2019-03-17T04:20:09.459Z,971.38
2019-03-17T04:21:09.464Z,971.44
2019-03-17T04:22:09.440Z,971.41
2019-03-17T04:23:09.445Z,971.35
2019-03-17T04:24:09.413Z,971.36
2019-03-17T04:25:09.429Z,971.47
2019-03-17T04:26:09.395Z,971.50
2019-03-17T04:27:09.397Z,971.45
2019-03-17T04:28:09.373Z,971.41
2019-03-17T04:29:09.380Z,971.38
2019-03-17T04:30:09.357Z,971.38
2019-03-17T04:31:09.341Z,971.37
2019-03-17T04:32:09.348Z,971.38
2019-03-17T04:33:09.317Z,971.38
2019-03-17T04:34:09.310Z,971.34
2019-03-17T04:35:09.323Z,971.39
2019-03-17T04:36:09.292Z,971.46
2019-03-17T04:37:09.275Z,971.42
2019-03-17T04:38:09.285Z,971.43
2019-03-17T04:39:09.270Z,971.45
2019-03-17T04:40:09.244Z,971.43
2019-03-17T04:41:09.251Z,971.44
2019-03-17T04:42:09.239Z,971.45
2019-03-17T04:43:09.209Z,971.44
2019-03-17T04:44:20.244Z,971.34
2019-03-17T04:45:10.210Z,971.45
2019-03-17T04:46:09.181Z,971.46
2019-03-17T04:47:09.193Z,971.48
2019-03-17T04:48:09.160Z,971.43
2019-03-17T04:49:09.172Z,971.47
2019-03-17T04:50:09.143Z,971.44
2019-03-17T04:51:09.125Z,971.42
2019-03-17T04:52:09.132Z,971.57
2019-03-17T04:53:09.106Z,971.54
2019-03-17T04:54:09.103Z,971.59
2019-03-17T04:55:09.106Z,971.59
2019-03-17T04:56:09.075Z,971.56
2019-03-17T04:57:09.085Z,971.49
2019-03-17T04:58:09.051Z,971.51
2019-03-17T04:59:09.046Z,971.35
2019-03-17T05:00:09.032Z,971.41
2019-03-17T05:01:09.023Z,971.44
2019-03-17T05:02:09.027Z,971.51
2019-03-17T05:03:09.022Z,971.52
2019-03-17T05:04:08.984Z,971.55
2019-03-17T05:05:08.992Z,971.53
2019-03-17T05:06:08.970Z,971.55
2019-03-17T05:07:08.959Z,971.62
2019-03-17T05:08:08.963Z,971.68
2019-03-17T05:09:08.979Z,971.64
2019-03-17T05:10:08.945Z,971.58
2019-03-17T05:11:08.911Z,971.68
2019-03-17T05:12:08.926Z,971.68
2019-03-17T05:13:08.918Z,971.56
2019-03-17T05:14:08.904Z,971.67
2019-03-17T05:15:08.872Z,971.61
2019-03-17T05:16:08.865Z,971.63
2019-03-17T05:17:08.952Z,971.51
2019-03-17T05:18:08.839Z,971.60
2019-03-17T05:19:08.841Z,971.61
2019-03-17T05:20:08.940Z,971.58
2019-03-17T05:21:09.053Z,971.66
2019-03-17T05:22:08.812Z,971.64
2019-03-17T05:23:08.937Z,971.59
2019-03-17T05:24:08.781Z,971.65
2019-03-17T05:25:08.806Z,971.60
2019-03-17T05:26:08.824Z,971.62
2019-03-17T05:27:08.771Z,971.64
2019-03-17T05:28:08.750Z,971.65
2019-03-17T05:29:08.747Z,971.65
2019-03-17T05:30:08.709Z,971.62
2019-03-17T05:31:08.713Z,971.62
2019-03-17T05:32:08.696Z,971.63
2019-03-17T05:33:08.720Z,971.59
2019-03-17T05:34:08.722Z,971.63
2019-03-17T05:35:08.656Z,971.68
2019-03-17T05:36:08.654Z,971.70
2019-03-17T05:37:08.642Z,971.69
2019-03-17T05:38:08.637Z,971.69
2019-03-17T05:39:08.717Z,971.65
2019-03-17T05:40:08.607Z,971.67
2019-03-17T05:41:08.586Z,971.72
2019-03-17T05:42:08.620Z,971.78
2019-03-17T05:43:08.570Z,971.77
2019-03-17T05:44:08.559Z,971.75
2019-03-17T05:45:08.543Z,971.75
2019-03-17T05:46:08.539Z,971.71
2019-03-17T05:47:08.580Z,971.70
2019-03-17T05:48:08.514Z,971.78
2019-03-17T05:49:08.515Z,971.72
2019-03-17T05:50:08.492Z,971.71
2019-03-17T05:51:08.482Z,971.81
2019-03-17T05:52:08.470Z,971.74
2019-03-17T05:53:08.494Z,971.78
2019-03-17T05:54:08.456Z,971.71
2019-03-17T05:55:08.442Z,971.78
2019-03-17T05:56:08.428Z,971.82
2019-03-17T05:57:08.414Z,971.80
2019-03-17T05:58:08.512Z,971.80
2019-03-17T05:59:08.422Z,971.81
2019-03-17T06:00:08.392Z,971.84
2019-03-17T06:01:08.381Z,971.88
2019-03-17T06:02:08.363Z,971.82
2019-03-17T06:03:08.452Z,971.88
2019-03-17T06:04:08.341Z,971.90
2019-03-17T06:05:08.346Z,971.89
2019-03-17T06:06:08.327Z,971.87
2019-03-17T06:07:18.200Z,971.92
2019-03-17T06:08:09.317Z,971.87
2019-03-17T06:09:08.290Z,971.88
2019-03-17T06:10:08.280Z,971.90
2019-03-17T06:11:08.270Z,971.92
2019-03-17T06:12:08.261Z,971.84
2019-03-17T06:13:08.242Z,972.01
2019-03-17T06:14:08.268Z,971.89
2019-03-17T06:15:08.255Z,971.91
2019-03-17T06:16:08.215Z,971.90
2019-03-17T06:17:08.214Z,971.96
2019-03-17T06:18:08.290Z,971.99
2019-03-17T06:19:08.207Z,971.92
2019-03-17T06:20:08.178Z,971.93
2019-03-17T06:21:08.175Z,972.02
2019-03-17T06:22:08.177Z,971.97
2019-03-17T06:23:08.167Z,971.86
2019-03-17T06:24:08.131Z,971.95
2019-03-17T06:25:08.154Z,971.90
2019-03-17T06:26:08.134Z,971.98
2019-03-17T06:27:08.107Z,971.96
2019-03-17T06:28:08.107Z,972.05
2019-03-17T06:29:08.077Z,972.15
2019-03-17T06:30:08.058Z,971.99
2019-03-17T06:31:08.048Z,972.02
2019-03-17T06:32:08.048Z,971.94
2019-03-17T06:33:08.058Z,972.03
2019-03-17T06:34:08.017Z,972.05
2019-03-17T06:35:08.067Z,972.03
2019-03-17T06:36:08.020Z,972.04
2019-03-17T06:37:07.982Z,972.07
2019-03-17T06:38:07.995Z,972.11
2019-03-17T06:39:07.983Z,972.09
2019-03-17T06:40:07.985Z,972.06
2019-03-17T06:41:07.965Z,972.12
2019-03-17T06:42:07.937Z,972.08
2019-03-17T06:43:07.961Z,972.08
2019-03-17T06:44:07.914Z,972.07
2019-03-17T06:45:07.919Z,972.09
2019-03-17T06:46:08.086Z,972.03
2019-03-17T06:47:07.919Z,972.15
2019-03-17T06:48:07.906Z,972.13
2019-03-17T06:49:07.879Z,972.15
2019-03-17T06:50:07.854Z,972.17
2019-03-17T06:51:07.848Z,972.20
2019-03-17T06:52:07.828Z,972.20
2019-03-17T06:53:07.851Z,972.26
2019-03-17T06:54:07.825Z,972.23
2019-03-17T06:55:07.785Z,972.18
2019-03-17T06:56:07.796Z,972.13
2019-03-17T06:57:07.881Z,972.18
2019-03-17T06:58:07.793Z,972.23
2019-03-17T06:59:07.771Z,972.20
2019-03-17T07:00:07.746Z,972.32
2019-03-17T07:01:07.735Z,972.28
2019-03-17T07:02:07.726Z,972.30
2019-03-17T07:03:07.770Z,972.31
2019-03-17T07:04:07.748Z,972.34
2019-03-17T07:05:07.712Z,972.33
2019-03-17T07:06:07.673Z,972.31
2019-03-17T07:07:07.961Z,972.29
2019-03-17T07:08:07.721Z,972.30
2019-03-17T07:09:07.659Z,972.34
2019-03-17T07:10:07.629Z,972.40
2019-03-17T07:11:07.613Z,972.32
2019-03-17T07:12:07.629Z,972.34
2019-03-17T07:13:07.662Z,972.35
2019-03-17T07:14:07.593Z,972.40
2019-03-17T07:15:07.574Z,972.36
2019-03-17T07:16:07.582Z,972.36
2019-03-17T07:17:07.552Z,972.41
2019-03-17T07:18:07.576Z,972.45
2019-03-17T07:19:07.566Z,972.43
2019-03-17T07:20:07.514Z,972.36
2019-03-17T07:21:07.505Z,972.31
2019-03-17T07:22:07.529Z,972.42
2019-03-17T07:23:07.489Z,972.38
2019-03-17T07:24:07.473Z,972.47
2019-03-17T07:25:07.487Z,972.44
2019-03-17T07:26:07.450Z,972.40
2019-03-17T07:27:07.463Z,972.42
2019-03-17T07:28:07.650Z,972.40
2019-03-17T07:29:07.446Z,972.40
2019-03-17T07:30:07.415Z,972.46
2019-03-17T07:31:07.397Z,972.52
2019-03-17T07:32:07.384Z,972.45
2019-03-17T07:33:07.386Z,972.51
2019-03-17T07:34:07.394Z,972.53
2019-03-17T07:35:07.357Z,972.58
2019-03-17T07:36:07.342Z,972.49
2019-03-17T07:37:07.356Z,972.57
2019-03-17T07:38:07.334Z,972.58
2019-03-17T07:39:12.029Z,972.71
2019-03-17T07:40:08.348Z,972.71
2019-03-17T07:41:07.294Z,972.63
2019-03-17T07:42:07.293Z,972.73
2019-03-17T07:43:07.356Z,972.75
2019-03-17T07:44:07.301Z,972.80
2019-03-17T07:45:07.254Z,972.95
2019-03-17T07:46:07.239Z,972.99
2019-03-17T07:47:07.262Z,973.09
2019-03-17T07:48:07.267Z,973.18
2019-03-17T07:49:08.412Z,972.96
2019-03-17T07:50:07.271Z,972.94
2019-03-17T07:51:07.179Z,973.08
2019-03-17T07:52:07.789Z,973.16
2019-03-17T07:53:07.185Z,973.10
2019-03-17T07:54:07.182Z,973.14
2019-03-17T07:55:07.143Z,973.16
2019-03-17T07:56:07.149Z,973.10
2019-03-17T07:57:07.174Z,973.21
2019-03-17T07:58:07.764Z,973.15
2019-03-17T07:59:07.119Z,973.23
2019-03-17T08:00:07.150Z,973.18
2019-03-17T08:01:07.724Z,973.23
2019-03-17T08:02:07.094Z,973.21
2019-03-17T08:03:07.093Z,973.21
2019-03-17T08:04:07.082Z,973.26
2019-03-17T08:05:07.034Z,973.12
2019-03-17T08:06:07.022Z,973.32
2019-03-17T08:07:07.086Z,973.20
2019-03-17T08:08:09.693Z,973.18
2019-03-17T08:09:07.045Z,973.29
2019-03-17T08:10:07.419Z,973.19
2019-03-17T08:11:06.984Z,973.20
2019-03-17T08:12:07.729Z,973.27
2019-03-17T08:13:06.988Z,973.27
2019-03-17T08:14:06.949Z,973.30
2019-03-17T08:15:06.931Z,973.31
2019-03-17T08:16:06.920Z,973.28
2019-03-17T08:17:06.919Z,973.41
2019-03-17T08:18:07.783Z,973.35
2019-03-17T08:19:06.904Z,973.34
2019-03-17T08:20:06.909Z,973.41
2019-03-17T08:21:06.890Z,973.44
2019-03-17T08:22:06.862Z,973.46
2019-03-17T08:23:06.855Z,973.48
2019-03-17T08:24:06.957Z,973.48
2019-03-17T08:25:06.826Z,973.50
2019-03-17T08:26:06.819Z,973.55
2019-03-17T08:27:06.828Z,973.64
2019-03-17T08:28:06.874Z,973.69
2019-03-17T08:29:06.783Z,973.70
2019-03-17T08:30:06.802Z,973.68
2019-03-17T08:31:06.874Z,973.82
2019-03-17T08:32:06.745Z,973.84
2019-03-17T08:33:06.736Z,973.91
2019-03-17T08:34:06.753Z,973.95
2019-03-17T08:35:06.722Z,974.00
2019-03-17T08:36:06.732Z,974.05
2019-03-17T08:37:06.731Z,974.08
2019-03-17T08:38:06.683Z,974.07
2019-03-17T08:39:06.685Z,974.07
2019-03-17T08:40:06.719Z,974.07
2019-03-17T08:41:06.651Z,974.03
2019-03-17T08:42:06.644Z,974.02
2019-03-17T08:43:06.634Z,974.05
2019-03-17T08:44:06.659Z,973.99
2019-03-17T08:45:06.621Z,973.97
2019-03-17T08:46:06.598Z,974.02
2019-03-17T08:47:06.585Z,974.05
2019-03-17T08:48:06.573Z,974.04
2019-03-17T08:49:06.593Z,974.13
2019-03-17T08:50:06.583Z,974.17
2019-03-17T08:51:06.544Z,974.17
2019-03-17T08:52:06.740Z,974.17
2019-03-17T08:53:06.530Z,974.21
2019-03-17T08:54:06.562Z,974.20
2019-03-17T08:55:06.529Z,974.18
2019-03-17T08:56:06.499Z,974.22
2019-03-17T08:57:06.496Z,974.22
2019-03-17T08:58:06.477Z,974.27
2019-03-17T08:59:06.521Z,974.26
2019-03-17T09:00:06.467Z,974.33
2019-03-17T09:01:06.449Z,974.34
2019-03-17T09:02:06.428Z,974.33
2019-03-17T09:03:06.421Z,974.40
2019-03-17T09:04:06.402Z,974.42
2019-03-17T09:05:06.394Z,974.48
2019-03-17T09:06:06.395Z,974.46
2019-03-17T09:07:06.376Z,974.52
2019-03-17T09:08:06.376Z,974.53
2019-03-17T09:09:06.363Z,974.53
2019-03-17T09:10:06.367Z,974.60
2019-03-17T09:11:06.324Z,974.56
2019-03-17T09:12:06.346Z,974.58
2019-03-17T09:13:07.425Z,974.55
2019-03-17T09:14:06.319Z,974.50
2019-03-17T09:15:06.291Z,974.45
2019-03-17T09:16:06.280Z,974.49
2019-03-17T09:17:14.303Z,974.49
2019-03-17T09:18:07.341Z,974.59
2019-03-17T09:19:08.237Z,974.66
2019-03-17T09:20:06.275Z,974.67
2019-03-17T09:21:06.294Z,974.62
2019-03-17T09:22:06.272Z,974.59
2019-03-17T09:23:06.205Z,974.58
2019-03-17T09:24:16.734Z,974.60
2019-03-17T09:25:07.206Z,974.55
2019-03-17T09:26:06.168Z,974.49
2019-03-17T09:27:06.715Z,974.41
2019-03-17T09:28:06.163Z,974.44
2019-03-17T09:29:06.740Z,974.49
2019-03-17T09:30:06.135Z,974.45
2019-03-17T09:31:07.555Z,974.46
2019-03-17T09:32:06.103Z,974.48
2019-03-17T09:33:06.104Z,974.47
2019-03-17T09:34:06.272Z,974.48
2019-03-17T09:35:06.091Z,974.52
2019-03-17T09:36:06.070Z,974.42
2019-03-17T09:37:06.069Z,974.49
2019-03-17T09:38:06.055Z,974.56
2019-03-17T09:39:06.038Z,974.61
2019-03-17T09:40:06.035Z,974.69
2019-03-17T09:41:06.014Z,974.71
2019-03-17T09:42:06.019Z,974.67
2019-03-17T09:43:06.781Z,974.64
2019-03-17T09:44:06.034Z,974.64
2019-03-17T09:45:06.758Z,974.58
2019-03-17T09:46:06.032Z,974.51
2019-03-17T09:47:05.969Z,974.55
2019-03-17T09:48:06.777Z,974.45
2019-03-17T09:49:05.923Z,974.48
2019-03-17T09:50:05.924Z,974.47
2019-03-17T09:51:05.949Z,974.62
2019-03-17T09:52:05.920Z,974.62
2019-03-17T09:53:05.875Z,974.64
2019-03-17T09:54:05.881Z,974.62
2019-03-17T09:55:05.917Z,974.62
2019-03-17T09:56:05.880Z,974.62
2019-03-17T09:57:05.929Z,974.58
2019-03-17T09:58:05.824Z,974.55
2019-03-17T09:59:05.860Z,974.52
2019-03-17T10:00:05.886Z,974.55
2019-03-17T10:01:05.813Z,974.53
2019-03-17T10:02:05.835Z,974.61
2019-03-17T10:03:05.766Z,974.63
2019-03-17T10:04:05.847Z,974.70
2019-03-17T10:05:05.773Z,974.70
2019-03-17T10:06:05.806Z,974.77
2019-03-17T10:07:05.734Z,974.68
2019-03-17T10:08:05.715Z,974.68
2019-03-17T10:09:05.734Z,974.63
2019-03-17T10:10:05.739Z,974.76
2019-03-17T10:11:05.751Z,974.79
2019-03-17T10:12:05.666Z,974.86
2019-03-17T10:13:05.661Z,974.66
2019-03-17T10:14:05.659Z,974.76
2019-03-17T10:15:05.641Z,974.75
2019-03-17T10:16:05.634Z,974.76
2019-03-17T10:17:05.760Z,974.77
2019-03-17T10:18:05.645Z,974.87
2019-03-17T10:19:05.631Z,974.80
2019-03-17T10:20:05.588Z,974.84
2019-03-17T10:21:05.623Z,974.89
2019-03-17T10:22:05.562Z,974.86
2019-03-17T10:23:05.620Z,974.86
2019-03-17T10:24:05.594Z,974.96
2019-03-17T10:25:05.537Z,974.91
2019-03-17T10:26:05.553Z,974.96
2019-03-17T10:27:07.242Z,974.96
2019-03-17T10:28:05.643Z,975.04
2019-03-17T10:29:05.515Z,975.03
2019-03-17T10:30:05.479Z,975.02
2019-03-17T10:31:05.521Z,975.00
2019-03-17T10:32:05.483Z,975.00
2019-03-17T10:33:05.455Z,974.98
2019-03-17T10:34:05.445Z,974.95
2019-03-17T10:35:05.453Z,974.93
2019-03-17T10:36:05.457Z,974.87
2019-03-17T10:37:05.609Z,974.84
2019-03-17T10:38:05.394Z,974.87
2019-03-17T10:39:12.340Z,974.86
2019-03-17T10:40:06.378Z,974.84
2019-03-17T10:41:05.436Z,974.82
2019-03-17T10:42:05.389Z,974.84
2019-03-17T10:43:05.386Z,974.91
2019-03-17T10:44:05.353Z,974.94
2019-03-17T10:45:05.357Z,975.00
2019-03-17T10:46:05.354Z,975.01
2019-03-17T10:47:05.327Z,975.06
2019-03-17T10:48:05.295Z,975.08
2019-03-17T10:49:05.292Z,975.05
2019-03-17T10:50:05.286Z,975.08
2019-03-17T10:51:05.296Z,975.06
2019-03-17T10:52:05.269Z,975.09
2019-03-17T10:53:05.235Z,975.16
2019-03-17T10:54:05.231Z,975.15
2019-03-17T10:55:05.235Z,975.23
2019-03-17T10:56:05.242Z,975.12
2019-03-17T10:57:05.192Z,975.21
2019-03-17T10:58:05.445Z,975.00
2019-03-17T10:59:05.244Z,975.16
2019-03-17T11:00:05.194Z,975.17
2019-03-17T11:01:05.146Z,975.09
2019-03-17T11:02:05.164Z,975.20
2019-03-17T11:03:05.173Z,975.09
2019-03-17T11:04:05.152Z,975.08
2019-03-17T11:05:05.138Z,975.19
2019-03-17T11:06:05.158Z,975.27
2019-03-17T11:07:05.149Z,975.19
2019-03-17T11:08:05.067Z,975.27
2019-03-17T11:09:05.083Z,975.22
2019-03-17T11:10:05.124Z,975.25
2019-03-17T11:11:05.057Z,975.24
2019-03-17T11:12:05.062Z,975.28
2019-03-17T11:13:05.019Z,975.32
2019-03-17T11:14:05.029Z,975.29
2019-03-17T11:15:05.026Z,975.34
2019-03-17T11:16:05.028Z,975.32
2019-03-17T11:17:05.042Z,975.42
2019-03-17T11:18:04.985Z,975.53
2019-03-17T11:19:05.159Z,975.47
2019-03-17T11:20:04.943Z,975.51
2019-03-17T11:21:04.934Z,975.57
2019-03-17T11:22:04.970Z,975.60
2019-03-17T11:23:04.933Z,975.56
2019-03-17T11:24:04.908Z,975.56
2019-03-17T11:25:04.904Z,975.57
2019-03-17T11:26:04.887Z,975.55
2019-03-17T11:27:04.902Z,975.59
2019-03-17T11:28:04.880Z,975.62
2019-03-17T11:29:04.904Z,975.58
2019-03-17T11:30:04.843Z,975.62
2019-03-17T11:31:04.838Z,975.60
2019-03-17T11:32:06.530Z,975.60
2019-03-17T11:33:04.813Z,975.60
2019-03-17T11:34:04.796Z,975.57
2019-03-17T11:35:04.800Z,975.57
2019-03-17T11:36:04.766Z,975.56
2019-03-17T11:37:04.789Z,975.52
2019-03-17T11:38:04.840Z,975.61
2019-03-17T11:39:04.749Z,975.48
2019-03-17T11:40:04.765Z,975.48
2019-03-17T11:41:04.806Z,975.48
2019-03-17T11:42:04.730Z,975.50
2019-03-17T11:43:04.701Z,975.58
2019-03-17T11:44:04.685Z,975.69
2019-03-17T11:45:04.685Z,975.75
2019-03-17T11:46:04.693Z,975.81
2019-03-17T11:47:04.690Z,975.70
2019-03-17T11:48:04.640Z,975.67
2019-03-17T11:49:04.637Z,975.66
2019-03-17T11:50:04.644Z,975.67
2019-03-17T11:51:04.612Z,975.66
2019-03-17T11:52:04.612Z,975.60
2019-03-17T11:53:04.601Z,975.54
2019-03-17T11:54:04.577Z,975.58
2019-03-17T11:55:04.634Z,975.59
2019-03-17T11:56:04.555Z,975.56
2019-03-17T11:57:04.547Z,975.67
2019-03-17T11:58:04.552Z,975.68
2019-03-17T11:59:04.547Z,975.77
2019-03-17T12:00:04.511Z,975.76
2019-03-17T12:01:04.506Z,975.88
2019-03-17T12:02:04.495Z,975.90
2019-03-17T12:03:04.482Z,975.90
2019-03-17T12:04:04.521Z,976.07
2019-03-17T12:05:04.525Z,976.08
2019-03-17T12:06:04.449Z,975.90
2019-03-17T12:07:04.488Z,975.98
2019-03-17T12:08:04.433Z,975.97
2019-03-17T12:09:04.656Z,975.98
2019-03-17T12:10:04.453Z,975.99
2019-03-17T12:11:04.397Z,976.02
2019-03-17T12:12:04.455Z,976.09
2019-03-17T12:13:04.391Z,976.09
2019-03-17T12:14:04.376Z,976.08
2019-03-17T12:15:04.351Z,976.17
2019-03-17T12:16:04.353Z,976.16
2019-03-17T12:17:04.356Z,976.10
2019-03-17T12:18:04.384Z,976.09
2019-03-17T12:19:04.311Z,976.16
2019-03-17T12:20:04.309Z,976.11
2019-03-17T12:21:04.291Z,976.17
2019-03-17T12:22:08.886Z,976.13
2019-03-17T12:23:04.344Z,976.13
2019-03-17T12:24:04.259Z,976.16
2019-03-17T12:25:04.257Z,976.14
2019-03-17T12:26:04.234Z,976.10
2019-03-17T12:27:04.225Z,976.14
2019-03-17T12:28:04.240Z,976.14